Comer, Alabama
Current Conditions -  °F | °C
As of 8:58 AM on Friday 28 Nov 2014 (Local Time) from KEUF Reporting Station
Clear Clear  
Wind Chill: 37°   Ceiling: Unl
Heat Index: 41°   Visibility: 10mi
Dew Point: 26°   Wind: 6mph
Humidity: 55%   Direction: NA
Pressure: 30.44"   Gusts: NA
Location:  32.1076°N, 85.5256°W
Report Text: KEUF 281458Z AUTO VRB05KT 10SM CLR 05/M03 A3044 RMK AO2 SLP308 60000 T00501033 53015
Loading
Personal Weather Stations






























Interactive Weather Map New forecast layout! Learn more

10-Day Weather Forecast

Advertisements
Track Severe Weather on mobile